Time;durP1;ratioP1;P1;durP2;ratioP2;P2;SDS_P1;SDS_P2;PMS_P1;PMS_P2;Temp;Humidity;BMP_temperature;BMP_pressure;BME280_temperature;BME280_humidity;BME280_pressure;Samples;Min_cycle;Max_cycle;Signal;HPM_P1;HPM_P2
2024/03/13 00:02:37;;;;;;;11.10;6.53;;;9.40;99.90;;;;;;8421707;28;20097;-71
2024/03/13 00:06:39;;;;;;;9.93;6.00;;;9.40;99.90;;;;;;8405592;28;20579;-71
2024/03/13 00:10:41;;;;;;;11.10;5.85;;;9.40;99.90;;;;;;8419205;28;20044;-71
2024/03/13 00:14:50;;;;;;;9.80;5.93;;;9.40;99.90;;;;;;8418957;28;20044;-71
2024/03/13 00:18:52;;;;;;;9.88;5.30;;;9.40;99.90;;;;;;8422680;28;20586;-71
2024/03/13 00:22:55;;;;;;;11.65;6.57;;;9.50;99.90;;;;;;8418167;28;20052;-71
2024/03/13 00:26:57;;;;;;;10.80;6.07;;;9.50;99.90;;;;;;8402889;28;20036;-71
2024/03/13 00:31:00;;;;;;;11.38;5.82;;;9.50;99.90;;;;;;8418268;28;20482;-71
2024/03/13 00:35:03;;;;;;;10.07;5.70;;;9.50;99.90;;;;;;8403352;28;20087;-71
2024/03/13 00:39:05;;;;;;;10.30;5.80;;;9.60;99.90;;;;;;8405213;28;20178;-71
2024/03/13 00:43:06;;;;;;;11.45;6.40;;;9.60;99.90;;;;;;8419079;28;20051;-71
2024/03/13 00:47:09;;;;;;;9.73;5.47;;;9.60;99.90;;;;;;8420855;28;20048;-71
2024/03/13 00:51:33;;;;;;;9.82;5.90;;;9.60;99.90;;;;;;8418557;28;20044;-71
2024/03/13 00:55:35;;;;;;;10.75;5.80;;;9.60;99.90;;;;;;8419652;28;20101;-71
2024/03/13 00:59:39;;;;;;;8.73;5.22;;;9.60;99.90;;;;;;8404082;28;20093;-71
2024/03/13 01:03:41;;;;;;;10.43;5.72;;;9.60;99.90;;;;;;8398455;28;20036;-71
2024/03/13 01:07:50;;;;;;;10.77;5.90;;;9.60;99.90;;;;;;8420710;28;20043;-71
2024/03/13 01:11:52;;;;;;;9.82;6.05;;;9.70;99.90;;;;;;8418626;28;20066;-71
2024/03/13 01:15:55;;;;;;;10.50;6.07;;;9.70;99.90;;;;;;8397097;28;20457;-71
2024/03/13 01:19:57;;;;;;;10.60;5.72;;;9.70;99.90;;;;;;8397699;28;20040;-71
2024/03/13 01:23:59;;;;;;;12.35;5.75;;;9.70;99.90;;;;;;8401345;28;20076;-71
2024/03/13 01:28:01;;;;;;;10.52;6.32;;;9.70;99.90;;;;;;8402777;28;20040;-71
2024/03/13 01:55:24;;;;;;;15.50;7.13;;;9.80;99.90;;;;;;8418267;28;20056;-71
2024/03/13 01:59:37;;;;;;;16.15;7.40;;;9.80;99.90;;;;;;8421810;28;20135;-71
2024/03/13 02:03:39;;;;;;;14.55;6.65;;;9.80;99.90;;;;;;8398509;28;20044;-71
2024/03/13 02:07:41;;;;;;;16.23;6.70;;;9.90;99.90;;;;;;8402438;28;20748;-71
2024/03/13 02:11:43;;;;;;;19.45;7.25;;;9.90;99.90;;;;;;8418485;28;20548;-71
2024/03/13 02:15:45;;;;;;;14.75;7.13;;;9.90;99.90;;;;;;8397291;28;20052;-71
2024/03/13 02:19:47;;;;;;;14.77;7.22;;;10.00;99.90;;;;;;8419109;28;20570;-71
2024/03/13 02:23:49;;;;;;;18.13;7.07;;;10.00;99.90;;;;;;8425989;28;20058;-71
2024/03/13 02:27:51;;;;;;;19.42;8.07;;;10.00;99.90;;;;;;8407838;28;20399;-71
2024/03/13 02:31:53;;;;;;;21.40;7.35;;;10.00;99.90;;;;;;8404581;28;20117;-71
2024/03/13 02:35:55;;;;;;;18.38;6.65;;;10.00;99.90;;;;;;8426720;28;20451;-71
2024/03/13 02:39:56;;;;;;;13.57;6.47;;;10.10;99.90;;;;;;8426512;28;20052;-71
2024/03/13 02:49:21;;;;;;;14.68;5.15;;;10.20;99.90;;;;;;8419838;28;20070;-71
2024/03/13 02:53:23;;;;;;;15.32;6.50;;;10.30;99.90;;;;;;8405894;28;20134;-71
2024/03/13 02:57:25;;;;;;;16.17;6.40;;;10.30;99.90;;;;;;8425988;28;20041;-71
2024/03/13 03:01:27;;;;;;;11.15;4.65;;;10.30;99.90;;;;;;8404172;28;20097;-71
2024/03/13 03:05:35;;;;;;;9.52;5.20;;;10.30;99.90;;;;;;8423233;28;20580;-71
2024/03/13 03:09:37;;;;;;;13.10;4.65;;;10.40;99.90;;;;;;8406242;28;20048;-71
2024/03/13 03:13:39;;;;;;;11.13;4.78;;;10.40;99.90;;;;;;8406996;28;20052;-71
2024/03/13 03:17:40;;;;;;;8.48;3.88;;;10.40;99.90;;;;;;8399249;28;20068;-71
2024/03/13 03:21:42;;;;;;;11.30;4.57;;;10.40;99.90;;;;;;8420990;28;20464;-71
2024/03/13 03:25:44;;;;;;;9.95;4.00;;;10.40;99.90;;;;;;8424768;28;20047;-71
2024/03/13 03:30:33;;;;;;;10.20;4.28;;;10.40;99.90;;;;;;8404994;28;20040;-71
2024/03/13 03:34:35;;;;;;;12.25;5.00;;;10.40;99.90;;;;;;8405692;28;20056;-71
2024/03/13 03:38:37;;;;;;;10.73;5.15;;;10.40;99.90;;;;;;8425101;28;20048;-71
2024/03/13 03:42:39;;;;;;;11.50;4.57;;;10.40;99.90;;;;;;8407259;28;20502;-71
2024/03/13 03:46:41;;;;;;;11.73;4.88;;;10.40;99.90;;;;;;8421549;28;20121;-71
2024/03/13 03:50:43;;;;;;;9.88;4.70;;;10.40;99.90;;;;;;8406750;28;20044;-71
2024/03/13 03:54:45;;;;;;;9.43;4.75;;;10.40;99.90;;;;;;8422878;28;20052;-71
2024/03/13 03:58:47;;;;;;;9.95;4.35;;;10.40;99.90;;;;;;8408286;28;20044;-71
2024/03/13 04:02:51;;;;;;;12.07;4.55;;;10.40;99.90;;;;;;8410257;28;20040;-71
2024/03/13 04:06:53;;;;;;;14.25;5.28;;;10.40;99.90;;;;;;8423913;28;20452;-71
2024/03/13 04:16:17;;;;;;;13.27;5.72;;;10.40;99.90;;;;;;8411316;28;20038;-71
2024/03/13 04:20:20;;;;;;;11.27;5.78;;;10.40;99.90;;;;;;8387414;28;20098;-71
2024/03/13 04:24:23;;;;;;;11.02;5.60;;;10.40;99.90;;;;;;8409020;28;20110;-71
2024/03/13 04:28:36;;;;;;;13.40;6.00;;;10.40;99.90;;;;;;8385483;28;20453;-71
2024/03/13 04:32:38;;;;;;;11.63;5.53;;;10.40;99.90;;;;;;8397114;28;20040;-71
2024/03/13 04:36:40;;;;;;;10.10;4.90;;;10.40;99.90;;;;;;8397059;28;20411;-71
2024/03/13 04:40:42;;;;;;;11.20;5.20;;;10.40;99.90;;;;;;8398300;28;20472;-71
2024/03/13 04:44:44;;;;;;;9.80;5.03;;;10.40;99.90;;;;;;8381133;28;20541;-71
2024/03/13 04:48:46;;;;;;;11.82;5.78;;;10.40;99.90;;;;;;8399108;28;20052;-71
2024/03/13 04:52:48;;;;;;;11.75;5.40;;;10.40;99.90;;;;;;8418063;28;20047;-71
2024/03/13 04:56:50;;;;;;;12.27;5.97;;;10.40;99.90;;;;;;8400903;28;20040;-71
2024/03/13 05:00:51;;;;;;;11.68;5.75;;;10.40;99.90;;;;;;8415848;28;20105;-71
2024/03/13 05:04:54;;;;;;;12.07;5.90;;;10.40;99.90;;;;;;8407042;28;20482;-71
2024/03/13 05:09:03;;;;;;;12.95;6.10;;;10.40;99.90;;;;;;8400839;28;20098;-71
2024/03/13 05:13:05;;;;;;;10.75;4.85;;;10.40;99.90;;;;;;8415973;28;20154;-71
2024/03/13 05:17:09;;;;;;;13.88;5.50;;;10.40;99.90;;;;;;8408474;28;20056;-71
2024/03/13 05:21:13;;;;;;;13.10;5.82;;;10.40;99.90;;;;;;8417599;28;20051;-71
2024/03/13 05:25:43;;;;;;;9.70;4.97;;;10.40;99.90;;;;;;8408784;28;20127;-71
2024/03/13 05:29:45;;;;;;;10.93;5.80;;;10.50;99.90;;;;;;8402899;28;20475;-71
2024/03/13 05:33:47;;;;;;;11.57;4.70;;;10.40;99.90;;;;;;8375932;28;20049;-71
2024/03/13 05:37:49;;;;;;;10.40;4.75;;;10.40;99.90;;;;;;8385640;28;20056;-71
2024/03/13 05:41:51;;;;;;;10.20;4.82;;;10.40;99.90;;;;;;8401646;28;20041;-71
2024/03/13 05:45:54;;;;;;;9.35;3.70;;;10.40;99.90;;;;;;8381224;28;20049;-71
2024/03/13 05:49:55;;;;;;;11.35;4.18;;;10.40;99.90;;;;;;8396344;28;20411;-71
2024/03/13 05:53:58;;;;;;;9.05;4.18;;;10.40;99.90;;;;;;8401011;28;20541;-71
2024/03/13 05:57:59;;;;;;;8.13;3.88;;;10.40;99.90;;;;;;8417151;28;20384;-71
2024/03/13 06:02:01;;;;;;;9.15;3.75;;;10.40;99.90;;;;;;8401526;28;20078;-71
2024/03/13 06:06:03;;;;;;;9.85;3.58;;;10.40;99.90;;;;;;8376219;28;20037;-71
2024/03/13 06:10:08;;;;;;;7.10;3.65;;;10.40;99.90;;;;;;8392515;28;20056;-71
2024/03/13 06:14:10;;;;;;;6.82;3.22;;;10.40;99.90;;;;;;8402816;28;20057;-71
2024/03/13 06:18:13;;;;;;;8.88;3.08;;;10.40;99.90;;;;;;8406495;28;20048;-71
2024/03/13 06:22:55;;;;;;;6.38;2.90;;;10.50;99.90;;;;;;8383084;28;20086;-71
2024/03/13 06:27:03;;;;;;;6.63;2.80;;;10.40;99.90;;;;;;8417755;28;20423;-71
2024/03/13 06:31:04;;;;;;;7.22;3.35;;;10.50;99.90;;;;;;8407150;28;20044;-71
2024/03/13 06:46:42;;;;;;;7.47;4.07;;;10.40;99.90;;;;;;8406776;28;20043;-71
2024/03/13 06:50:44;;;;;;;8.57;4.40;;;10.50;99.90;;;;;;8415070;28;20353;-71
2024/03/13 06:54:46;;;;;;;7.53;3.30;;;10.40;99.90;;;;;;8405815;28;20086;-71
2024/03/13 06:58:48;;;;;;;8.23;4.30;;;10.40;99.90;;;;;;8392842;28;20082;-71
2024/03/13 07:02:50;;;;;;;8.48;3.78;;;10.40;99.90;;;;;;8416324;28;20044;-71
2024/03/13 07:06:57;;;;;;;8.60;3.72;;;10.50;99.90;;;;;;8420931;28;20036;-71
2024/03/13 07:10:59;;;;;;;;;;;10.50;99.90;;;;;;8401486;28;20079;-71
2024/03/13 07:15:01;;;;;;;10.13;4.43;;;10.50;99.90;;;;;;8400165;28;19955;-71
2024/03/13 07:19:07;;;;;;;11.98;4.15;;;10.50;99.90;;;;;;8421594;28;20537;-71
2024/03/13 07:23:09;;;;;;;8.32;3.58;;;10.50;99.90;;;;;;8396222;28;20510;-71
2024/03/13 07:27:10;;;;;;;8.77;4.00;;;10.60;99.90;;;;;;8413214;28;20048;-71
2024/03/13 07:31:53;;;;;;;10.27;3.92;;;10.60;99.90;;;;;;8420112;28;20043;-71
2024/03/13 07:46:40;;;;;;;10.95;5.38;;;10.60;99.90;;;;;;8413674;28;20062;-71
2024/03/13 07:50:43;;;;;;;12.10;5.63;;;10.70;99.90;;;;;;8419629;28;20101;-71
2024/03/13 07:54:44;;;;;;;10.23;5.60;;;10.70;99.90;;;;;;8415317;28;20060;-72
2024/03/13 07:58:46;;;;;;;12.48;5.38;;;10.70;99.90;;;;;;8422339;28;20134;-71
2024/03/13 08:02:48;;;;;;;13.20;5.68;;;10.70;99.90;;;;;;8420476;28;20040;-71
2024/03/13 08:06:53;;;;;;;10.82;5.45;;;10.70;99.90;;;;;;8416249;28;20044;-71
2024/03/13 08:11:13;;;;;;;12.75;5.65;;;10.70;99.90;;;;;;8406577;28;20169;-71
2024/03/13 08:15:32;;;;;;;9.55;5.50;;;10.70;99.90;;;;;;8411466;28;20047;-71
2024/03/13 08:19:53;;;;;;;10.82;5.35;;;10.70;99.90;;;;;;8398190;28;20059;-71
2024/03/13 08:24:12;;;;;;;11.07;6.50;;;10.70;99.90;;;;;;8400283;28;20042;-71
2024/03/13 08:28:31;;;;;;;10.20;5.60;;;10.70;99.90;;;;;;8422506;28;20107;-71
2024/03/13 08:32:53;;;;;;;13.85;6.55;;;10.80;99.90;;;;;;8414442;28;20043;-71
2024/03/13 08:37:12;;;;;;;12.43;7.05;;;10.80;99.90;;;;;;8394054;28;20085;-71
2024/03/13 08:41:31;;;;;;;13.20;6.95;;;10.80;99.90;;;;;;8417913;28;20101;-71
2024/03/13 08:45:50;;;;;;;17.20;8.35;;;10.80;99.90;;;;;;8397567;28;20058;-71
2024/03/13 08:50:10;;;;;;;16.60;8.10;;;10.80;99.90;;;;;;8401131;28;20094;-71
2024/03/13 08:54:29;;;;;;;18.08;8.05;;;10.80;99.90;;;;;;8395574;28;20034;-71
2024/03/13 08:58:48;;;;;;;16.13;7.78;;;10.80;99.90;;;;;;8398361;28;20043;-71
2024/03/13 09:03:08;;;;;;;13.88;7.47;;;10.80;99.90;;;;;;8416804;28;20407;-71
2024/03/13 09:07:29;;;;;;;14.80;6.45;;;10.90;99.90;;;;;;8404245;28;20486;-71
2024/03/13 09:11:31;;;;;;;16.77;8.80;;;10.90;99.90;;;;;;8396301;28;20040;-71
2024/03/13 09:15:33;;;;;;;15.38;7.13;;;10.90;99.90;;;;;;8415807;28;20163;-71
2024/03/13 09:19:38;;;;;;;14.32;6.40;;;10.90;99.90;;;;;;8406864;28;20039;-71
2024/03/13 09:23:40;;;;;;;10.95;5.53;;;11.00;99.90;;;;;;8420451;28;20044;-71
2024/03/13 09:27:42;;;;;;;11.55;6.03;;;11.00;99.90;;;;;;8398288;28;20043;-71
2024/03/13 09:31:43;;;;;;;11.27;6.10;;;11.10;99.90;;;;;;8416250;28;20047;-71
2024/03/13 09:35:45;;;;;;;11.88;6.40;;;11.10;99.90;;;;;;8394531;28;20052;-72
2024/03/13 09:39:48;;;;;;;11.57;6.30;;;11.10;99.90;;;;;;8413526;28;21569;-71
2024/03/13 09:43:50;;;;;;;10.60;5.50;;;11.10;99.90;;;;;;8411078;28;20040;-71
2024/03/13 09:47:53;;;;;;;9.40;4.78;;;11.20;99.90;;;;;;8379432;28;20054;-71
2024/03/13 09:51:55;;;;;;;11.02;5.78;;;11.20;99.90;;;;;;8420158;28;20773;-71
2024/03/13 09:55:58;;;;;;;9.85;4.95;;;11.30;99.90;;;;;;8412979;28;20762;-72
2024/03/13 10:00:02;;;;;;;9.68;5.75;;;11.30;99.90;;;;;;8396779;28;20059;-72
2024/03/13 10:04:11;;;;;;;11.35;5.30;;;11.30;99.90;;;;;;8389042;28;20454;-71
2024/03/13 10:08:13;;;;;;;10.50;4.97;;;11.30;99.90;;;;;;8371792;28;20500;-72
2024/03/13 10:12:21;;;;;;;10.23;4.63;;;11.40;99.90;;;;;;8364457;28;20044;-72
2024/03/13 10:16:25;;;;;;;11.38;4.97;;;11.40;99.90;;;;;;8393647;28;20051;-71
2024/03/13 10:20:40;;;;;;;8.38;4.05;;;11.50;99.90;;;;;;8386748;28;20044;-72
2024/03/13 10:24:42;;;;;;;10.57;4.30;;;11.60;99.90;;;;;;8387649;28;20135;-72
2024/03/13 10:28:45;;;;;;;12.88;5.30;;;11.60;99.90;;;;;;8388766;28;20089;-71
2024/03/13 10:32:48;;;;;;;9.20;3.72;;;11.60;99.90;;;;;;8365162;28;20047;-72
2024/03/13 10:36:51;;;;;;;9.68;4.47;;;11.60;99.90;;;;;;8366981;28;20051;-72
2024/03/13 10:41:11;;;;;;;9.90;4.10;;;11.70;99.90;;;;;;8385428;28;20045;-72
2024/03/13 10:45:14;;;;;;;10.90;4.13;;;11.60;99.90;;;;;;8405023;28;20048;-72
2024/03/13 10:49:17;;;;;;;8.85;3.67;;;11.70;99.90;;;;;;8395054;28;20063;-72
2024/03/13 10:53:19;;;;;;;12.38;3.20;;;11.70;99.90;;;;;;8391536;28;20045;-72
2024/03/13 10:57:21;;;;;;;8.50;3.58;;;11.70;99.90;;;;;;8382959;28;20105;-72
2024/03/13 11:01:23;;;;;;;9.15;4.30;;;11.70;99.90;;;;;;8389873;28;20105;-71
2024/03/13 11:05:25;;;;;;;9.75;3.35;;;11.60;99.90;;;;;;8390026;28;20502;-72
2024/03/13 11:09:28;;;;;;;6.22;3.17;;;11.60;99.90;;;;;;8387694;28;20111;-71
2024/03/13 11:13:30;;;;;;;8.95;3.35;;;11.70;99.90;;;;;;8370810;28;20044;-72
2024/03/13 11:17:35;;;;;;;9.38;3.50;;;11.70;99.90;;;;;;8399173;28;20106;-72
2024/03/13 11:21:56;;;;;;;7.60;3.08;;;11.80;99.90;;;;;;8390371;28;20179;-72
2024/03/13 11:26:06;;;;;;;8.25;2.53;;;11.90;99.90;;;;;;8368321;28;20059;-72
2024/03/13 11:30:18;;;;;;;9.25;2.88;;;11.90;99.90;;;;;;8389834;28;20058;-72
2024/03/13 11:34:24;;;;;;;8.75;3.00;;;11.90;99.90;;;;;;8391967;28;20507;-71
2024/03/13 11:38:26;;;;;;;8.30;2.67;;;11.90;99.90;;;;;;8379058;28;20048;-72
2024/03/13 11:42:31;;;;;;;5.53;2.28;;;11.90;99.90;;;;;;8390506;28;20052;-71
2024/03/13 11:46:43;;;;;;;8.63;2.75;;;11.90;99.90;;;;;;8369118;28;20529;-71
2024/03/13 11:51:00;;;;;;;7.00;2.45;;;11.90;99.90;;;;;;8383913;28;20053;-71
2024/03/13 11:55:04;;;;;;;;;;;11.90;99.90;;;;;;8385383;28;20087;-71
2024/03/13 11:59:08;;;;;;;6.20;2.10;;;12.00;99.90;;;;;;8376645;28;19924;-71
2024/03/13 12:03:11;;;;;;;6.30;2.17;;;11.90;99.90;;;;;;8387629;28;20102;-71
2024/03/13 12:07:17;;;;;;;5.60;2.17;;;11.90;99.90;;;;;;8391789;28;20068;-71
2024/03/13 12:11:20;;;;;;;5.05;2.20;;;11.90;99.90;;;;;;8376343;28;20055;-72
2024/03/13 12:15:23;;;;;;;5.32;1.92;;;11.90;99.90;;;;;;8402790;28;20059;-72
2024/03/13 12:19:26;;;;;;;4.75;1.98;;;11.90;99.90;;;;;;8380991;28;20055;-71
2024/03/13 12:23:28;;;;;;;6.50;2.20;;;12.00;99.90;;;;;;8370881;28;20049;-72
2024/03/13 12:27:31;;;;;;;5.05;1.90;;;12.00;99.90;;;;;;8383047;28;20048;-71
2024/03/13 12:31:33;;;;;;;7.70;1.80;;;12.10;99.90;;;;;;8387957;28;20052;-72
2024/03/13 12:35:36;;;;;;;4.07;1.88;;;12.20;99.90;;;;;;8365847;28;20051;-72
2024/03/13 12:39:39;;;;;;;4.85;2.00;;;12.30;99.90;;;;;;8388703;28;20101;-71
2024/03/13 12:43:40;;;;;;;5.97;2.20;;;12.20;99.90;;;;;;8378324;28;20094;-71
2024/03/13 12:47:46;;;;;;;8.18;2.33;;;12.20;99.90;;;;;;8371516;28;20044;-71
2024/03/13 12:51:52;;;;;;;6.90;2.58;;;12.20;99.90;;;;;;8371116;28;20135;-71
2024/03/13 12:55:54;;;;;;;5.35;2.13;;;12.20;99.90;;;;;;8389035;28;20121;-71
2024/03/13 12:59:58;;;;;;;7.47;3.03;;;12.20;99.90;;;;;;8384139;28;20102;-72
2024/03/13 13:04:00;;;;;;;5.38;2.80;;;12.20;99.90;;;;;;8384866;28;20053;-71
2024/03/13 13:08:02;;;;;;;9.00;3.97;;;12.20;99.90;;;;;;8387956;28;20050;-71
2024/03/13 13:12:06;;;;;;;7.13;3.60;;;12.10;99.90;;;;;;8384869;28;20044;-72
2024/03/13 13:16:10;;;;;;;8.00;4.72;;;12.10;99.90;;;;;;8384522;28;20087;-71
2024/03/13 13:20:13;;;;;;;10.68;4.68;;;12.20;99.90;;;;;;8383827;28;20066;-71
2024/03/13 13:24:15;;;;;;;7.03;3.83;;;12.10;99.90;;;;;;8388968;28;20075;-71
2024/03/13 13:28:18;;;;;;;8.25;4.78;;;12.10;99.90;;;;;;8386997;28;20085;-71
2024/03/13 13:32:20;;;;;;;8.93;4.50;;;12.10;99.90;;;;;;8367555;28;20072;-71
2024/03/13 13:36:22;;;;;;;7.78;5.18;;;12.10;99.90;;;;;;8381786;28;20142;-72
2024/03/13 13:40:24;;;;;;;10.00;5.50;;;12.10;99.90;;;;;;8382359;28;20048;-72
2024/03/13 13:44:27;;;;;;;10.52;6.70;;;12.10;99.90;;;;;;8384367;28;20410;-71
2024/03/13 13:48:29;;;;;;;12.35;7.60;;;12.10;99.90;;;;;;8363228;28;20181;-71
2024/03/13 13:52:31;;;;;;;13.80;7.25;;;12.10;99.90;;;;;;8386096;28;20072;-72
2024/03/13 13:56:32;;;;;;;12.70;7.50;;;12.20;99.90;;;;;;8369539;28;20101;-71
2024/03/13 14:00:36;;;;;;;13.40;7.20;;;12.30;99.90;;;;;;8387179;28;20556;-72
2024/03/13 14:04:40;;;;;;;12.40;6.25;;;12.30;99.90;;;;;;8370948;28;20101;-71
2024/03/13 14:08:42;;;;;;;12.32;5.43;;;12.40;99.90;;;;;;8368565;28;20048;-72
2024/03/13 14:12:44;;;;;;;13.38;5.55;;;12.40;99.90;;;;;;8370341;28;20109;-71
2024/03/13 14:16:46;;;;;;;9.02;5.00;;;12.40;99.90;;;;;;8383066;28;20079;-72
2024/03/13 14:20:48;;;;;;;9.65;4.70;;;12.50;99.90;;;;;;8369816;28;20291;-71
2024/03/13 14:24:51;;;;;;;7.68;4.72;;;12.50;99.90;;;;;;8402336;28;20054;-71
2024/03/13 14:28:53;;;;;;;9.80;4.65;;;12.50;99.90;;;;;;8389743;28;20048;-72
2024/03/13 14:32:54;;;;;;;8.95;4.32;;;12.50;99.90;;;;;;8374325;28;20072;-72
2024/03/13 14:36:56;;;;;;;8.65;3.15;;;12.50;99.90;;;;;;8374683;28;20056;-72
2024/03/13 14:40:58;;;;;;;6.93;3.47;;;12.50;99.90;;;;;;8394813;28;20510;-71
2024/03/13 14:45:02;;;;;;;6.95;3.33;;;12.50;99.90;;;;;;8393598;28;20059;-71
2024/03/13 14:49:04;;;;;;;6.35;3.40;;;12.50;99.90;;;;;;8391157;28;20052;-71
2024/03/13 14:53:06;;;;;;;9.75;3.55;;;12.60;99.90;;;;;;8390087;28;20495;-72
2024/03/13 14:57:11;;;;;;;7.43;3.17;;;12.60;99.90;;;;;;8385013;28;20051;-71
2024/03/13 15:01:12;;;;;;;6.03;2.80;;;12.60;99.90;;;;;;8381947;28;20216;-71
2024/03/13 15:05:14;;;;;;;5.70;3.05;;;12.70;99.90;;;;;;8389375;28;20075;-71
2024/03/13 15:09:17;;;;;;;5.82;2.83;;;12.70;99.90;;;;;;8370169;28;20049;-72
2024/03/13 15:13:19;;;;;;;6.20;3.00;;;12.70;99.90;;;;;;8374989;28;20098;-72
2024/03/13 15:17:23;;;;;;;8.13;3.03;;;12.60;99.90;;;;;;8388236;28;20048;-71
2024/03/13 15:21:26;;;;;;;6.20;2.75;;;12.60;99.90;;;;;;8385372;28;20049;-72
2024/03/13 15:25:28;;;;;;;4.85;3.03;;;12.60;99.90;;;;;;8392485;28;20052;-72
2024/03/13 15:29:32;;;;;;;5.57;2.83;;;12.60;99.90;;;;;;8392179;28;20048;-71
2024/03/13 15:33:36;;;;;;;5.07;2.65;;;12.50;99.90;;;;;;8395324;28;20056;-73
2024/03/13 15:37:38;;;;;;;5.20;3.30;;;12.50;99.90;;;;;;8377125;28;20044;-71
2024/03/13 15:41:40;;;;;;;4.85;2.92;;;12.50;99.90;;;;;;8396758;28;20411;-71
2024/03/13 15:45:44;;;;;;;6.80;3.17;;;12.50;99.90;;;;;;8375125;28;20044;-71
2024/03/13 15:49:47;;;;;;;6.07;3.05;;;12.60;99.90;;;;;;8369925;28;20423;-71
2024/03/13 15:53:48;;;;;;;6.43;3.17;;;12.50;99.90;;;;;;8392758;28;20499;-71
2024/03/13 15:57:51;;;;;;;6.60;3.40;;;12.50;99.90;;;;;;8400371;28;20072;-71
2024/03/13 16:07:25;;;;;;;6.30;3.28;;;12.50;99.90;;;;;;8385555;28;20182;-71
2024/03/13 16:11:28;;;;;;;5.07;3.13;;;12.50;99.90;;;;;;8379310;28;20672;-71
2024/03/13 16:15:34;;;;;;;5.18;2.90;;;12.50;99.90;;;;;;8370792;28;20164;-72
2024/03/13 16:19:37;;;;;;;6.10;3.60;;;12.50;99.90;;;;;;8386712;28;20393;-71
2024/03/13 16:23:40;;;;;;;5.90;3.45;;;12.50;99.90;;;;;;8368759;28;20052;-71
2024/03/13 16:27:42;;;;;;;5.03;3.20;;;12.50;99.90;;;;;;8385830;28;20047;-71
2024/03/13 16:31:44;;;;;;;5.22;3.10;;;12.50;99.90;;;;;;8384005;28;20052;-71
2024/03/13 16:35:45;;;;;;;6.00;3.22;;;12.50;99.90;;;;;;8369941;28;20554;-71
2024/03/13 16:39:47;;;;;;;5.72;3.00;;;12.50;99.90;;;;;;8386917;28;20700;-71
2024/03/13 16:43:49;;;;;;;6.03;2.90;;;12.50;99.90;;;;;;8389222;28;20044;-71
2024/03/13 16:47:51;;;;;;;5.85;2.88;;;12.50;99.90;;;;;;8383317;28;20399;-71
2024/03/13 16:51:53;;;;;;;5.03;2.95;;;12.50;99.90;;;;;;8385296;28;20056;-71
2024/03/13 16:55:54;;;;;;;6.15;3.15;;;12.50;99.90;;;;;;8391747;28;20048;-71
2024/03/13 16:59:57;;;;;;;5.57;2.78;;;12.50;99.90;;;;;;8369873;28;20056;-71
2024/03/13 17:03:59;;;;;;;5.35;2.90;;;12.50;99.90;;;;;;8378490;28;20059;-71
2024/03/13 17:08:01;;;;;;;4.80;3.17;;;12.50;99.90;;;;;;8372559;28;20299;-72
2024/03/13 17:12:03;;;;;;;5.55;3.00;;;12.50;99.90;;;;;;8385871;28;20067;-71
2024/03/13 17:16:10;;;;;;;4.50;2.80;;;12.50;99.90;;;;;;8390505;28;20056;-71
2024/03/13 17:20:14;;;;;;;5.33;3.30;;;12.50;99.90;;;;;;8368637;28;20059;-72
2024/03/13 17:24:15;;;;;;;4.82;2.80;;;12.50;99.90;;;;;;8369611;28;20044;-72
2024/03/13 17:28:17;;;;;;;5.60;2.92;;;12.40;99.90;;;;;;8391429;28;20051;-72
2024/03/13 17:32:20;;;;;;;5.45;3.38;;;12.40;99.90;;;;;;8388405;28;20055;-72
2024/03/13 17:36:22;;;;;;;6.00;3.15;;;12.40;99.90;;;;;;8392724;28;20056;-71
2024/03/13 17:40:23;;;;;;;5.40;3.15;;;12.30;99.90;;;;;;8399330;28;20098;-72
2024/03/13 17:44:25;;;;;;;5.47;2.85;;;12.30;99.90;;;;;;8388695;28;20435;-71
2024/03/13 17:48:27;;;;;;;5.70;3.30;;;12.30;99.90;;;;;;8389631;28;20849;-71
2024/03/13 17:52:29;;;;;;;5.13;2.78;;;12.20;99.90;;;;;;8401117;28;20056;-71
2024/03/13 17:56:31;;;;;;;5.78;3.10;;;12.20;99.90;;;;;;8403018;28;20044;-71
2024/03/13 18:00:33;;;;;;;6.75;3.50;;;12.10;99.90;;;;;;8380811;28;20056;-72
2024/03/13 18:04:35;;;;;;;5.55;3.15;;;12.10;99.90;;;;;;8398105;28;20055;-71
2024/03/13 18:08:37;;;;;;;6.05;3.20;;;12.10;99.90;;;;;;8384094;28;20514;-72
2024/03/13 18:12:39;;;;;;;5.40;3.13;;;12.10;99.90;;;;;;8387607;28;20048;-71
2024/03/13 18:16:42;;;;;;;4.95;3.05;;;12.10;99.90;;;;;;8399774;28;20841;-71
2024/03/13 18:20:43;;;;;;;7.55;3.70;;;12.10;99.90;;;;;;8398699;28;20062;-72
2024/03/13 18:24:45;;;;;;;7.40;3.97;;;12.10;99.90;;;;;;8379547;28;20082;-72
2024/03/13 18:28:47;;;;;;;6.20;3.45;;;12.10;99.90;;;;;;8400095;28;20048;-71
2024/03/13 18:32:49;;;;;;;7.03;3.50;;;12.10;99.90;;;;;;8395317;28;20082;-72
2024/03/13 18:36:54;;;;;;;6.60;3.58;;;12.10;99.90;;;;;;8398769;28;20495;-71
2024/03/13 18:40:57;;;;;;;5.47;3.20;;;12.10;99.90;;;;;;8401567;28;20120;-72
2024/03/13 18:44:59;;;;;;;5.55;3.35;;;12.10;99.90;;;;;;8398776;28;20047;-71
2024/03/13 18:49:01;;;;;;;6.30;3.85;;;12.10;99.90;;;;;;8395093;28;20054;-72
2024/03/13 18:53:04;;;;;;;6.78;3.85;;;12.00;99.90;;;;;;8397537;28;20044;-72
2024/03/13 18:57:06;;;;;;;9.55;4.38;;;12.00;99.90;;;;;;8401358;28;20519;-71
2024/03/13 19:01:08;;;;;;;6.15;4.00;;;12.00;99.90;;;;;;8395505;28;20056;-71
2024/03/13 19:05:09;;;;;;;5.90;3.75;;;12.00;99.90;;;;;;8373882;28;20151;-72
2024/03/13 19:09:24;;;;;;;5.65;3.72;;;12.00;99.90;;;;;;8394296;28;20040;-72
2024/03/13 19:13:26;;;;;;;5.68;3.75;;;12.00;99.90;;;;;;8380540;28;20087;-72
2024/03/13 19:17:28;;;;;;;7.07;4.63;;;11.90;99.90;;;;;;8395857;28;20055;-72
2024/03/13 19:21:30;;;;;;;6.68;3.95;;;11.90;99.90;;;;;;8392428;28;20160;-72
2024/03/13 19:25:33;;;;;;;6.57;3.88;;;11.90;99.90;;;;;;8385479;28;20492;-72
2024/03/13 19:29:35;;;;;;;6.47;4.07;;;11.90;99.90;;;;;;8395393;28;20447;-72
2024/03/13 19:33:37;;;;;;;6.85;4.10;;;11.90;99.90;;;;;;8392036;28;20076;-72
2024/03/13 19:37:39;;;;;;;5.50;3.40;;;11.80;99.90;;;;;;8390687;28;20384;-72
2024/03/13 19:41:41;;;;;;;6.60;3.97;;;11.80;99.90;;;;;;8388929;28;20044;-72
2024/03/13 19:45:43;;;;;;;6.43;3.70;;;11.70;99.90;;;;;;8389373;28;20052;-71
2024/03/13 19:49:45;;;;;;;6.38;3.70;;;11.70;99.90;;;;;;8372129;28;20048;-72
2024/03/13 19:53:47;;;;;;;7.65;3.50;;;11.60;99.90;;;;;;8368282;28;20079;-72
2024/03/13 19:57:49;;;;;;;9.30;3.40;;;11.60;99.90;;;;;;8382780;28;20055;-72
2024/03/13 20:01:50;;;;;;;5.10;2.83;;;11.60;99.90;;;;;;8381278;28;20648;-72
2024/03/13 20:05:52;;;;;;;7.18;3.17;;;11.60;99.90;;;;;;8370607;28;20098;-72
2024/03/13 20:15:16;;;;;;;5.88;3.03;;;11.50;99.90;;;;;;8389355;28;20035;-72
2024/03/13 20:19:18;;;;;;;4.80;2.63;;;11.60;99.90;;;;;;8390095;28;20264;-72
2024/03/13 20:23:20;;;;;;;4.90;2.60;;;11.60;99.90;;;;;;8391115;28;20055;-72
2024/03/13 20:27:22;;;;;;;6.47;3.00;;;11.60;99.90;;;;;;8372452;28;20039;-72
2024/03/13 20:31:24;;;;;;;4.90;2.58;;;11.60;99.90;;;;;;8367749;28;20049;-72
2024/03/13 20:35:26;;;;;;;4.60;2.60;;;11.60;99.90;;;;;;8396113;28;20040;-72
2024/03/13 20:39:28;;;;;;;4.47;2.40;;;11.60;99.90;;;;;;8390497;28;20053;-72
2024/03/13 20:43:30;;;;;;;5.60;2.83;;;11.60;99.90;;;;;;8389037;28;20052;-72
2024/03/13 20:47:31;;;;;;;5.68;3.03;;;11.60;99.90;;;;;;8387376;28;20105;-72
2024/03/13 20:51:36;;;;;;;5.60;2.60;;;11.60;99.90;;;;;;8397855;28;20413;-72
2024/03/13 20:55:39;;;;;;;5.28;2.70;;;11.60;99.90;;;;;;8370899;28;20545;-72
2024/03/13 20:59:41;;;;;;;4.70;2.45;;;11.60;99.90;;;;;;8381241;28;20048;-72
2024/03/13 21:04:04;;;;;;;4.90;2.58;;;11.60;99.90;;;;;;8368837;28;20365;-72
2024/03/13 21:08:06;;;;;;;5.78;2.75;;;11.60;99.90;;;;;;8384698;28;20210;-71
2024/03/13 21:12:45;;;;;;;5.43;2.40;;;11.60;99.90;;;;;;8370113;28;20134;-72
2024/03/13 21:16:50;;;;;;;5.63;3.28;;;11.50;99.90;;;;;;8385356;28;20049;-72
2024/03/13 21:20:54;;;;;;;5.22;2.55;;;11.50;99.90;;;;;;8385142;28;20492;-72
2024/03/13 21:24:56;;;;;;;6.05;3.30;;;11.40;99.90;;;;;;8399459;28;20102;-72
2024/03/13 21:28:57;;;;;;;5.97;3.67;;;11.40;99.90;;;;;;8384841;28;20472;-72
2024/03/13 21:32:59;;;;;;;5.97;3.83;;;11.30;99.90;;;;;;8384249;28;20131;-71
2024/03/13 21:37:01;;;;;;;7.25;3.97;;;11.30;99.90;;;;;;8384825;28;20474;-72
2024/03/13 21:41:06;;;;;;;7.70;3.58;;;11.20;99.90;;;;;;8397698;28;20056;-72
2024/03/13 21:45:10;;;;;;;8.33;4.00;;;11.20;99.90;;;;;;8400815;28;20048;-72
2024/03/13 21:49:13;;;;;;;6.82;3.85;;;11.20;99.90;;;;;;8385758;28;20527;-72
2024/03/13 21:53:15;;;;;;;6.75;4.32;;;11.20;99.90;;;;;;8387979;28;20048;-72
2024/03/13 21:57:18;;;;;;;7.30;4.68;;;11.10;99.90;;;;;;8400283;28;20048;-72
2024/03/13 22:01:20;;;;;;;6.70;4.30;;;11.10;99.90;;;;;;8388368;28;20698;-72
2024/03/13 22:05:22;;;;;;;6.50;4.05;;;11.10;99.90;;;;;;8418287;28;20051;-71
2024/03/13 22:09:23;;;;;;;8.90;4.47;;;11.10;99.90;;;;;;8418428;28;20070;-72
2024/03/13 22:13:26;;;;;;;8.05;4.93;;;11.10;99.90;;;;;;8420465;28;20051;-72
2024/03/13 22:17:30;;;;;;;7.30;4.55;;;11.10;99.90;;;;;;8414437;28;20138;-71